sensor_id;sensor_type;location;lat;lon;timestamp;temperature;humidity
14735;DHT22;7458;49.002;8.472;2023-01-19T00:00:20;2.00;99.90
14735;DHT22;7458;49.002;8.472;2023-01-19T00:02:45;1.60;99.90
14735;DHT22;7458;49.002;8.472;2023-01-19T00:05:13;1.60;99.90
14735;DHT22;7458;49.002;8.472;2023-01-19T00:07:39;1.60;99.90
14735;DHT22;7458;49.002;8.472;2023-01-19T00:10:05;1.60;99.90
14735;DHT22;7458;49.002;8.472;2023-01-19T00:12:32;1.50;99.90
14735;DHT22;7458;49.002;8.472;2023-01-19T00:14:57;1.60;99.90
14735;DHT22;7458;49.002;8.472;2023-01-19T00:17:23;1.60;99.90
14735;DHT22;7458;49.002;8.472;2023-01-19T00:19:49;1.70;99.90
14735;DHT22;7458;49.002;8.472;2023-01-19T00:22:14;1.70;99.90
14735;DHT22;7458;49.002;8.472;2023-01-19T00:24:40;2.00;99.90
14735;DHT22;7458;49.002;8.472;2023-01-19T00:27:06;1.70;99.90
14735;DHT22;7458;49.002;8.472;2023-01-19T00:29:32;1.60;99.90
14735;DHT22;7458;49.002;8.472;2023-01-19T00:32:02;1.80;99.90
14735;DHT22;7458;49.002;8.472;2023-01-19T00:34:29;1.60;99.90
14735;DHT22;7458;49.002;8.472;2023-01-19T00:37:05;2.10;99.90
14735;DHT22;7458;49.002;8.472;2023-01-19T00:39:31;2.60;99.90
14735;DHT22;7458;49.002;8.472;2023-01-19T00:41:57;1.60;99.90
14735;DHT22;7458;49.002;8.472;2023-01-19T00:44:41;1.70;99.90
14735;DHT22;7458;49.002;8.472;2023-01-19T00:47:07;1.70;99.90
14735;DHT22;7458;49.002;8.472;2023-01-19T00:49:33;1.60;99.90
14735;DHT22;7458;49.002;8.472;2023-01-19T00:51:58;1.90;99.90
14735;DHT22;7458;49.002;8.472;2023-01-19T00:54:24;1.70;99.90
14735;DHT22;7458;49.002;8.472;2023-01-19T00:56:50;1.70;99.90
14735;DHT22;7458;49.002;8.472;2023-01-19T00:59:16;1.70;99.90
14735;DHT22;7458;49.002;8.472;2023-01-19T01:01:41;1.70;99.90
14735;DHT22;7458;49.002;8.472;2023-01-19T01:04:07;1.70;99.90
14735;DHT22;7458;49.002;8.472;2023-01-19T01:06:33;1.70;99.90
14735;DHT22;7458;49.002;8.472;2023-01-19T01:08:58;1.70;99.90
14735;DHT22;7458;49.002;8.472;2023-01-19T01:11:24;1.80;99.90
14735;DHT22;7458;49.002;8.472;2023-01-19T01:13:50;2.10;99.90
14735;DHT22;7458;49.002;8.472;2023-01-19T01:16:16;2.20;99.90
14735;DHT22;7458;49.002;8.472;2023-01-19T01:18:42;1.80;99.90
14735;DHT22;7458;49.002;8.472;2023-01-19T01:21:09;1.80;99.90
14735;DHT22;7458;49.002;8.472;2023-01-19T01:23:37;1.80;99.90
14735;DHT22;7458;49.002;8.472;2023-01-19T01:26:03;2.10;99.90
14735;DHT22;7458;49.002;8.472;2023-01-19T01:28:30;1.70;99.90
14735;DHT22;7458;49.002;8.472;2023-01-19T01:30:56;1.70;99.90
14735;DHT22;7458;49.002;8.472;2023-01-19T01:33:22;1.70;99.90
14735;DHT22;7458;49.002;8.472;2023-01-19T01:35:49;1.80;99.90
14735;DHT22;7458;49.002;8.472;2023-01-19T01:38:16;1.80;99.90
14735;DHT22;7458;49.002;8.472;2023-01-19T01:40:42;1.80;99.90
14735;DHT22;7458;49.002;8.472;2023-01-19T01:43:12;1.90;99.90
14735;DHT22;7458;49.002;8.472;2023-01-19T01:45:39;2.00;99.90
14735;DHT22;7458;49.002;8.472;2023-01-19T01:48:16;1.80;99.90
14735;DHT22;7458;49.002;8.472;2023-01-19T01:50:52;2.50;99.90
14735;DHT22;7458;49.002;8.472;2023-01-19T01:53:42;1.80;99.90
14735;DHT22;7458;49.002;8.472;2023-01-19T01:56:14;1.80;99.90
14735;DHT22;7458;49.002;8.472;2023-01-19T01:58:44;2.10;99.90
14735;DHT22;7458;49.002;8.472;2023-01-19T02:01:10;2.00;99.90
14735;DHT22;7458;49.002;8.472;2023-01-19T02:03:56;1.90;99.90
14735;DHT22;7458;49.002;8.472;2023-01-19T02:06:23;1.90;99.90
14735;DHT22;7458;49.002;8.472;2023-01-19T02:08:58;2.00;99.90
14735;DHT22;7458;49.002;8.472;2023-01-19T02:11:48;2.00;99.90
14735;DHT22;7458;49.002;8.472;2023-01-19T02:14:34;2.10;99.90
14735;DHT22;7458;49.002;8.472;2023-01-19T02:17:03;2.10;99.90
14735;DHT22;7458;49.002;8.472;2023-01-19T02:19:39;2.20;99.90
14735;DHT22;7458;49.002;8.472;2023-01-19T02:25:02;2.10;99.90
14735;DHT22;7458;49.002;8.472;2023-01-19T02:27:30;2.10;99.90
14735;DHT22;7458;49.002;8.472;2023-01-19T02:29:57;2.40;99.90
14735;DHT22;7458;49.002;8.472;2023-01-19T02:32:23;3.10;99.90
14735;DHT22;7458;49.002;8.472;2023-01-19T02:34:49;2.10;99.90
14735;DHT22;7458;49.002;8.472;2023-01-19T02:37:16;2.10;99.90
14735;DHT22;7458;49.002;8.472;2023-01-19T02:39:49;2.20;99.90
14735;DHT22;7458;49.002;8.472;2023-01-19T02:42:22;2.10;99.90
14735;DHT22;7458;49.002;8.472;2023-01-19T02:44:53;3.00;99.90
14735;DHT22;7458;49.002;8.472;2023-01-19T02:47:22;2.60;99.90
14735;DHT22;7458;49.002;8.472;2023-01-19T02:49:58;2.20;99.90
14735;DHT22;7458;49.002;8.472;2023-01-19T02:52:25;2.10;99.90
14735;DHT22;7458;49.002;8.472;2023-01-19T02:55:07;2.10;99.90
14735;DHT22;7458;49.002;8.472;2023-01-19T03:00:39;2.10;99.90
14735;DHT22;7458;49.002;8.472;2023-01-19T03:03:53;2.10;99.90
14735;DHT22;7458;49.002;8.472;2023-01-19T03:09:31;2.40;99.90
14735;DHT22;7458;49.002;8.472;2023-01-19T03:12:44;2.00;99.90
14735;DHT22;7458;49.002;8.472;2023-01-19T03:15:22;2.00;99.90
14735;DHT22;7458;49.002;8.472;2023-01-19T03:17:53;2.00;99.90
14735;DHT22;7458;49.002;8.472;2023-01-19T03:20:23;2.00;99.90
14735;DHT22;7458;49.002;8.472;2023-01-19T03:23:00;2.00;99.90
14735;DHT22;7458;49.002;8.472;2023-01-19T03:25:33;2.00;99.90
14735;DHT22;7458;49.002;8.472;2023-01-19T03:28:02;2.10;99.90
14735;DHT22;7458;49.002;8.472;2023-01-19T03:30:39;1.90;99.90
14735;DHT22;7458;49.002;8.472;2023-01-19T03:33:20;1.90;99.90
14735;DHT22;7458;49.002;8.472;2023-01-19T03:35:56;1.90;99.90
14735;DHT22;7458;49.002;8.472;2023-01-19T03:38:32;1.90;99.90
14735;DHT22;7458;49.002;8.472;2023-01-19T03:41:05;1.90;99.90
14735;DHT22;7458;49.002;8.472;2023-01-19T03:43:35;1.90;99.90
14735;DHT22;7458;49.002;8.472;2023-01-19T03:46:05;1.80;99.90
14735;DHT22;7458;49.002;8.472;2023-01-19T03:48:32;1.80;99.90
14735;DHT22;7458;49.002;8.472;2023-01-19T03:51:02;1.90;99.90
14735;DHT22;7458;49.002;8.472;2023-01-19T03:53:31;2.60;99.90
14735;DHT22;7458;49.002;8.472;2023-01-19T03:55:56;2.40;99.90
14735;DHT22;7458;49.002;8.472;2023-01-19T03:58:22;1.90;99.90
14735;DHT22;7458;49.002;8.472;2023-01-19T04:00:48;1.80;99.90
14735;DHT22;7458;49.002;8.472;2023-01-19T04:03:15;1.80;99.90
14735;DHT22;7458;49.002;8.472;2023-01-19T04:05:43;1.80;99.90
14735;DHT22;7458;49.002;8.472;2023-01-19T04:08:10;2.20;99.90
14735;DHT22;7458;49.002;8.472;2023-01-19T04:10:36;2.20;99.90
14735;DHT22;7458;49.002;8.472;2023-01-19T04:13:03;2.20;99.90
14735;DHT22;7458;49.002;8.472;2023-01-19T04:15:30;2.20;99.90
14735;DHT22;7458;49.002;8.472;2023-01-19T04:17:57;2.20;99.90
14735;DHT22;7458;49.002;8.472;2023-01-19T04:20:24;2.20;99.90
14735;DHT22;7458;49.002;8.472;2023-01-19T04:22:51;2.80;99.90
14735;DHT22;7458;49.002;8.472;2023-01-19T04:25:17;2.30;99.90
14735;DHT22;7458;49.002;8.472;2023-01-19T04:27:43;2.30;99.90
14735;DHT22;7458;49.002;8.472;2023-01-19T04:30:09;2.50;99.90
14735;DHT22;7458;49.002;8.472;2023-01-19T04:32:35;2.30;99.90
14735;DHT22;7458;49.002;8.472;2023-01-19T04:35:01;2.30;99.90
14735;DHT22;7458;49.002;8.472;2023-01-19T04:37:27;2.70;99.90
14735;DHT22;7458;49.002;8.472;2023-01-19T04:39:52;2.30;99.90
14735;DHT22;7458;49.002;8.472;2023-01-19T04:42:18;2.30;99.90
14735;DHT22;7458;49.002;8.472;2023-01-19T04:44:44;2.30;99.90
14735;DHT22;7458;49.002;8.472;2023-01-19T04:47:10;2.30;99.90
14735;DHT22;7458;49.002;8.472;2023-01-19T04:49:36;2.30;99.90
14735;DHT22;7458;49.002;8.472;2023-01-19T04:52:03;2.30;99.90
14735;DHT22;7458;49.002;8.472;2023-01-19T04:54:29;2.30;99.90
14735;DHT22;7458;49.002;8.472;2023-01-19T04:56:55;2.30;99.90
14735;DHT22;7458;49.002;8.472;2023-01-19T04:59:22;2.30;99.90
14735;DHT22;7458;49.002;8.472;2023-01-19T05:01:47;2.30;99.90
14735;DHT22;7458;49.002;8.472;2023-01-19T05:04:13;2.30;99.90
14735;DHT22;7458;49.002;8.472;2023-01-19T05:06:39;2.30;99.90
14735;DHT22;7458;49.002;8.472;2023-01-19T05:09:04;2.30;99.90
14735;DHT22;7458;49.002;8.472;2023-01-19T05:11:36;2.40;99.90
14735;DHT22;7458;49.002;8.472;2023-01-19T05:14:01;2.40;99.90
14735;DHT22;7458;49.002;8.472;2023-01-19T05:16:27;2.30;99.90
14735;DHT22;7458;49.002;8.472;2023-01-19T05:18:53;2.60;99.90
14735;DHT22;7458;49.002;8.472;2023-01-19T05:21:18;2.80;99.90
14735;DHT22;7458;49.002;8.472;2023-01-19T05:23:44;2.60;99.90
14735;DHT22;7458;49.002;8.472;2023-01-19T05:26:10;2.30;99.90
14735;DHT22;7458;49.002;8.472;2023-01-19T05:28:36;2.30;99.90
14735;DHT22;7458;49.002;8.472;2023-01-19T05:31:02;2.40;99.90
14735;DHT22;7458;49.002;8.472;2023-01-19T05:33:28;2.20;99.90
14735;DHT22;7458;49.002;8.472;2023-01-19T05:35:55;2.90;99.90
14735;DHT22;7458;49.002;8.472;2023-01-19T05:38:21;2.70;99.90
14735;DHT22;7458;49.002;8.472;2023-01-19T05:40:48;2.10;99.90
14735;DHT22;7458;49.002;8.472;2023-01-19T05:43:14;2.30;99.90
14735;DHT22;7458;49.002;8.472;2023-01-19T05:45:40;1.90;99.90
14735;DHT22;7458;49.002;8.472;2023-01-19T05:48:07;1.80;99.90
14735;DHT22;7458;49.002;8.472;2023-01-19T05:50:33;1.80;99.90
14735;DHT22;7458;49.002;8.472;2023-01-19T05:53:00;1.90;99.90
14735;DHT22;7458;49.002;8.472;2023-01-19T05:55:27;2.40;99.90
14735;DHT22;7458;49.002;8.472;2023-01-19T05:57:53;1.80;99.90
14735;DHT22;7458;49.002;8.472;2023-01-19T06:00:19;1.90;99.90
14735;DHT22;7458;49.002;8.472;2023-01-19T06:02:44;1.80;99.90
14735;DHT22;7458;49.002;8.472;2023-01-19T06:05:13;1.80;99.90
14735;DHT22;7458;49.002;8.472;2023-01-19T06:07:40;1.80;99.90
14735;DHT22;7458;49.002;8.472;2023-01-19T06:10:06;2.40;99.90
14735;DHT22;7458;49.002;8.472;2023-01-19T06:12:32;1.70;99.90
14735;DHT22;7458;49.002;8.472;2023-01-19T06:14:59;2.10;99.90
14735;DHT22;7458;49.002;8.472;2023-01-19T06:17:24;1.70;99.90
14735;DHT22;7458;49.002;8.472;2023-01-19T06:19:50;1.70;99.90
14735;DHT22;7458;49.002;8.472;2023-01-19T06:22:16;1.70;99.90
14735;DHT22;7458;49.002;8.472;2023-01-19T06:24:41;1.70;99.90
14735;DHT22;7458;49.002;8.472;2023-01-19T06:27:07;1.70;99.90
14735;DHT22;7458;49.002;8.472;2023-01-19T06:29:33;1.70;99.90
14735;DHT22;7458;49.002;8.472;2023-01-19T06:31:59;1.70;99.90
14735;DHT22;7458;49.002;8.472;2023-01-19T06:34:24;2.10;99.90
14735;DHT22;7458;49.002;8.472;2023-01-19T06:36:54;1.70;99.90
14735;DHT22;7458;49.002;8.472;2023-01-19T06:39:20;1.70;99.90
14735;DHT22;7458;49.002;8.472;2023-01-19T06:41:46;2.00;99.90
14735;DHT22;7458;49.002;8.472;2023-01-19T06:44:12;1.90;99.90
14735;DHT22;7458;49.002;8.472;2023-01-19T06:46:38;1.90;99.90
14735;DHT22;7458;49.002;8.472;2023-01-19T06:49:03;3.10;99.90
14735;DHT22;7458;49.002;8.472;2023-01-19T06:51:29;3.00;99.90
14735;DHT22;7458;49.002;8.472;2023-01-19T06:53:55;2.60;99.90
14735;DHT22;7458;49.002;8.472;2023-01-19T06:56:21;2.30;99.90
14735;DHT22;7458;49.002;8.472;2023-01-19T06:58:47;2.10;99.90
14735;DHT22;7458;49.002;8.472;2023-01-19T07:01:13;2.20;99.90
14735;DHT22;7458;49.002;8.472;2023-01-19T07:03:39;2.20;99.90
14735;DHT22;7458;49.002;8.472;2023-01-19T07:06:05;2.20;99.90
14735;DHT22;7458;49.002;8.472;2023-01-19T07:08:32;2.20;99.90
14735;DHT22;7458;49.002;8.472;2023-01-19T07:11:03;2.20;99.90
14735;DHT22;7458;49.002;8.472;2023-01-19T07:13:35;2.30;99.90
14735;DHT22;7458;49.002;8.472;2023-01-19T07:16:07;2.30;99.90
14735;DHT22;7458;49.002;8.472;2023-01-19T07:18:36;2.30;99.90
14735;DHT22;7458;49.002;8.472;2023-01-19T07:21:03;2.30;99.90
14735;DHT22;7458;49.002;8.472;2023-01-19T07:23:28;2.40;99.90
14735;DHT22;7458;49.002;8.472;2023-01-19T07:25:58;2.40;99.90
14735;DHT22;7458;49.002;8.472;2023-01-19T07:28:26;2.40;99.90
14735;DHT22;7458;49.002;8.472;2023-01-19T07:30:53;2.40;99.90
14735;DHT22;7458;49.002;8.472;2023-01-19T07:33:20;2.60;99.90
14735;DHT22;7458;49.002;8.472;2023-01-19T07:35:50;2.50;99.90
14735;DHT22;7458;49.002;8.472;2023-01-19T07:38:17;2.80;99.90
14735;DHT22;7458;49.002;8.472;2023-01-19T07:40:44;2.60;99.90
14735;DHT22;7458;49.002;8.472;2023-01-19T07:43:13;2.80;99.90
14735;DHT22;7458;49.002;8.472;2023-01-19T07:45:40;2.60;99.90
14735;DHT22;7458;49.002;8.472;2023-01-19T07:48:06;2.60;99.90
14735;DHT22;7458;49.002;8.472;2023-01-19T07:50:32;2.80;99.90
14735;DHT22;7458;49.002;8.472;2023-01-19T07:53:04;2.80;99.90
14735;DHT22;7458;49.002;8.472;2023-01-19T07:55:31;2.80;99.90
14735;DHT22;7458;49.002;8.472;2023-01-19T07:57:57;2.80;99.90
14735;DHT22;7458;49.002;8.472;2023-01-19T08:00:23;2.90;99.90
14735;DHT22;7458;49.002;8.472;2023-01-19T08:02:51;2.90;99.90
14735;DHT22;7458;49.002;8.472;2023-01-19T08:05:17;2.80;99.90
14735;DHT22;7458;49.002;8.472;2023-01-19T08:07:45;2.80;99.90
14735;DHT22;7458;49.002;8.472;2023-01-19T08:10:13;3.50;99.90
14735;DHT22;7458;49.002;8.472;2023-01-19T08:12:39;2.80;99.90
14735;DHT22;7458;49.002;8.472;2023-01-19T08:15:07;2.90;99.90
14735;DHT22;7458;49.002;8.472;2023-01-19T08:17:33;2.90;99.90
14735;DHT22;7458;49.002;8.472;2023-01-19T08:19:59;3.60;99.90
14735;DHT22;7458;49.002;8.472;2023-01-19T08:22:25;3.10;99.90
14735;DHT22;7458;49.002;8.472;2023-01-19T08:24:51;2.90;99.90
14735;DHT22;7458;49.002;8.472;2023-01-19T08:27:17;3.10;99.90
14735;DHT22;7458;49.002;8.472;2023-01-19T08:29:43;3.00;99.90
14735;DHT22;7458;49.002;8.472;2023-01-19T08:32:08;3.00;99.90
14735;DHT22;7458;49.002;8.472;2023-01-19T08:34:34;4.30;99.90
14735;DHT22;7458;49.002;8.472;2023-01-19T08:37:00;3.10;99.90
14735;DHT22;7458;49.002;8.472;2023-01-19T08:39:26;3.20;99.90
14735;DHT22;7458;49.002;8.472;2023-01-19T08:41:52;3.50;99.90
14735;DHT22;7458;49.002;8.472;2023-01-19T08:44:18;3.60;99.90
14735;DHT22;7458;49.002;8.472;2023-01-19T08:46:44;3.70;99.90
14735;DHT22;7458;49.002;8.472;2023-01-19T08:49:10;3.20;99.90
14735;DHT22;7458;49.002;8.472;2023-01-19T08:51:36;3.20;99.90
14735;DHT22;7458;49.002;8.472;2023-01-19T08:54:02;3.10;99.90
14735;DHT22;7458;49.002;8.472;2023-01-19T08:56:29;3.20;99.90
14735;DHT22;7458;49.002;8.472;2023-01-19T08:58:54;3.20;99.90
14735;DHT22;7458;49.002;8.472;2023-01-19T09:01:20;3.20;99.90
14735;DHT22;7458;49.002;8.472;2023-01-19T09:03:46;3.30;99.90
14735;DHT22;7458;49.002;8.472;2023-01-19T09:06:14;3.50;99.90
14735;DHT22;7458;49.002;8.472;2023-01-19T09:08:44;3.50;99.90
14735;DHT22;7458;49.002;8.472;2023-01-19T09:11:14;3.50;99.90
14735;DHT22;7458;49.002;8.472;2023-01-19T09:13:42;3.60;99.90
14735;DHT22;7458;49.002;8.472;2023-01-19T09:16:08;3.60;99.90
14735;DHT22;7458;49.002;8.472;2023-01-19T09:18:37;3.70;99.90
14735;DHT22;7458;49.002;8.472;2023-01-19T09:21:03;3.80;99.90
14735;DHT22;7458;49.002;8.472;2023-01-19T09:23:29;3.90;99.90
14735;DHT22;7458;49.002;8.472;2023-01-19T09:26:00;4.00;99.90
14735;DHT22;7458;49.002;8.472;2023-01-19T09:28:27;3.90;99.90
14735;DHT22;7458;49.002;8.472;2023-01-19T09:30:54;4.50;99.90
14735;DHT22;7458;49.002;8.472;2023-01-19T09:33:20;6.50;99.90
14735;DHT22;7458;49.002;8.472;2023-01-19T09:35:48;5.80;99.90
14735;DHT22;7458;49.002;8.472;2023-01-19T09:38:15;5.40;99.90
14735;DHT22;7458;49.002;8.472;2023-01-19T09:40:50;4.90;99.90
14735;DHT22;7458;49.002;8.472;2023-01-19T09:43:38;4.70;99.90
14735;DHT22;7458;49.002;8.472;2023-01-19T09:48:52;4.40;99.90
14735;DHT22;7458;49.002;8.472;2023-01-19T09:51:47;4.40;99.90
14735;DHT22;7458;49.002;8.472;2023-01-19T09:55:07;4.50;99.90
14735;DHT22;7458;49.002;8.472;2023-01-19T09:57:14;4.50;99.90
14735;DHT22;7458;49.002;8.472;2023-01-19T09:59:40;5.20;99.90
14735;DHT22;7458;49.002;8.472;2023-01-19T10:10:50;4.70;99.90
14735;DHT22;7458;49.002;8.472;2023-01-19T10:13:24;4.50;99.90
14735;DHT22;7458;49.002;8.472;2023-01-19T10:19:19;4.10;99.90
14735;DHT22;7458;49.002;8.472;2023-01-19T10:21:50;4.40;99.90
14735;DHT22;7458;49.002;8.472;2023-01-19T10:24:27;4.10;99.90
14735;DHT22;7458;49.002;8.472;2023-01-19T10:26:57;4.00;99.90
14735;DHT22;7458;49.002;8.472;2023-01-19T10:29:31;4.20;99.90
14735;DHT22;7458;49.002;8.472;2023-01-19T10:32:28;3.80;99.90
14735;DHT22;7458;49.002;8.472;2023-01-19T10:34:59;4.10;99.90
14735;DHT22;7458;49.002;8.472;2023-01-19T10:37:38;3.60;99.90
14735;DHT22;7458;49.002;8.472;2023-01-19T10:42:35;3.40;99.90
14735;DHT22;7458;49.002;8.472;2023-01-19T10:47:44;3.50;99.90
14735;DHT22;7458;49.002;8.472;2023-01-19T10:50:29;3.60;99.90
14735;DHT22;7458;49.002;8.472;2023-01-19T10:52:59;3.40;99.90
14735;DHT22;7458;49.002;8.472;2023-01-19T10:55:38;3.20;99.90
14735;DHT22;7458;49.002;8.472;2023-01-19T10:58:05;4.10;99.90
14735;DHT22;7458;49.002;8.472;2023-01-19T11:00:50;3.40;99.90
14735;DHT22;7458;49.002;8.472;2023-01-19T11:03:23;3.60;99.90
14735;DHT22;7458;49.002;8.472;2023-01-19T11:05:52;3.40;99.90
14735;DHT22;7458;49.002;8.472;2023-01-19T11:08:28;3.40;99.90
14735;DHT22;7458;49.002;8.472;2023-01-19T11:10:59;3.40;99.90
14735;DHT22;7458;49.002;8.472;2023-01-19T11:13:29;3.90;99.90
14735;DHT22;7458;49.002;8.472;2023-01-19T11:16:07;3.80;99.90
14735;DHT22;7458;49.002;8.472;2023-01-19T11:18:40;3.70;99.90
14735;DHT22;7458;49.002;8.472;2023-01-19T11:21:13;3.70;99.90
14735;DHT22;7458;49.002;8.472;2023-01-19T11:23:47;3.60;99.90
14735;DHT22;7458;49.002;8.472;2023-01-19T11:29:19;3.60;99.90
14735;DHT22;7458;49.002;8.472;2023-01-19T11:31:47;3.60;99.90
14735;DHT22;7458;49.002;8.472;2023-01-19T11:34:31;3.60;99.90
14735;DHT22;7458;49.002;8.472;2023-01-19T11:37:04;3.60;99.90
14735;DHT22;7458;49.002;8.472;2023-01-19T11:39:52;3.60;99.90
14735;DHT22;7458;49.002;8.472;2023-01-19T11:42:24;3.60;99.90
14735;DHT22;7458;49.002;8.472;2023-01-19T11:45:10;3.70;99.90
14735;DHT22;7458;49.002;8.472;2023-01-19T11:47:48;3.80;99.90
14735;DHT22;7458;49.002;8.472;2023-01-19T11:53:22;3.80;99.90
14735;DHT22;7458;49.002;8.472;2023-01-19T11:58:29;3.80;99.90
14735;DHT22;7458;49.002;8.472;2023-01-19T12:01:01;3.80;99.90
14735;DHT22;7458;49.002;8.472;2023-01-19T12:03:40;4.40;99.90
14735;DHT22;7458;49.002;8.472;2023-01-19T12:06:21;3.90;99.90
14735;DHT22;7458;49.002;8.472;2023-01-19T12:11:59;3.90;99.90
14735;DHT22;7458;49.002;8.472;2023-01-19T12:15:01;4.00;99.90
14735;DHT22;7458;49.002;8.472;2023-01-19T12:17:35;4.00;99.90
14735;DHT22;7458;49.002;8.472;2023-01-19T12:25:51;4.10;99.90
14735;DHT22;7458;49.002;8.472;2023-01-19T12:28:38;4.60;99.90
14735;DHT22;7458;49.002;8.472;2023-01-19T12:31:07;4.40;99.90
14735;DHT22;7458;49.002;8.472;2023-01-19T12:33:34;4.30;99.90
14735;DHT22;7458;49.002;8.472;2023-01-19T12:38:55;4.20;99.90
14735;DHT22;7458;49.002;8.472;2023-01-19T12:41:33;4.10;99.90
14735;DHT22;7458;49.002;8.472;2023-01-19T12:46:53;4.00;99.90
14735;DHT22;7458;49.002;8.472;2023-01-19T12:49:33;4.00;99.90
14735;DHT22;7458;49.002;8.472;2023-01-19T12:55:34;4.10;99.90
14735;DHT22;7458;49.002;8.472;2023-01-19T13:00:43;4.10;99.90
14735;DHT22;7458;49.002;8.472;2023-01-19T13:10:53;4.40;99.90
14735;DHT22;7458;49.002;8.472;2023-01-19T13:18:54;6.60;99.90
14735;DHT22;7458;49.002;8.472;2023-01-19T13:21:45;4.20;99.90
14735;DHT22;7458;49.002;8.472;2023-01-19T13:24:14;4.20;99.90
14735;DHT22;7458;49.002;8.472;2023-01-19T13:29:21;4.20;99.90
14735;DHT22;7458;49.002;8.472;2023-01-19T13:31:55;4.20;99.90
14735;DHT22;7458;49.002;8.472;2023-01-19T13:34:32;6.00;99.90
14735;DHT22;7458;49.002;8.472;2023-01-19T13:37:05;4.20;99.90
14735;DHT22;7458;49.002;8.472;2023-01-19T13:39:41;4.20;99.90
14735;DHT22;7458;49.002;8.472;2023-01-19T13:42:35;4.20;99.90
14735;DHT22;7458;49.002;8.472;2023-01-19T13:47:55;4.40;99.90
14735;DHT22;7458;49.002;8.472;2023-01-19T13:50:28;4.40;99.90
14735;DHT22;7458;49.002;8.472;2023-01-19T13:52:56;4.40;99.90
14735;DHT22;7458;49.002;8.472;2023-01-19T13:55:26;4.50;99.90
14735;DHT22;7458;49.002;8.472;2023-01-19T13:57:54;4.60;99.90
14735;DHT22;7458;49.002;8.472;2023-01-19T14:00:26;4.60;99.90
14735;DHT22;7458;49.002;8.472;2023-01-19T14:13:35;4.60;99.90
14735;DHT22;7458;49.002;8.472;2023-01-19T14:16:14;4.70;99.90
14735;DHT22;7458;49.002;8.472;2023-01-19T14:18:41;4.70;99.90
14735;DHT22;7458;49.002;8.472;2023-01-19T14:21:10;4.70;99.90
14735;DHT22;7458;49.002;8.472;2023-01-19T14:23:49;4.90;99.90
14735;DHT22;7458;49.002;8.472;2023-01-19T14:26:51;4.60;99.90
14735;DHT22;7458;49.002;8.472;2023-01-19T14:32:13;4.50;99.90
14735;DHT22;7458;49.002;8.472;2023-01-19T14:34:47;4.40;99.90
14735;DHT22;7458;49.002;8.472;2023-01-19T14:42:57;4.30;99.90
14735;DHT22;7458;49.002;8.472;2023-01-19T14:45:29;4.30;99.90
14735;DHT22;7458;49.002;8.472;2023-01-19T14:48:02;4.30;99.90
14735;DHT22;7458;49.002;8.472;2023-01-19T14:50:39;4.30;99.90
14735;DHT22;7458;49.002;8.472;2023-01-19T14:53:24;4.30;99.90
14735;DHT22;7458;49.002;8.472;2023-01-19T14:56:02;4.40;99.90
14735;DHT22;7458;49.002;8.472;2023-01-19T14:58:31;4.30;99.90
14735;DHT22;7458;49.002;8.472;2023-01-19T15:00:59;4.40;99.90
14735;DHT22;7458;49.002;8.472;2023-01-19T15:03:26;4.40;99.90
14735;DHT22;7458;49.002;8.472;2023-01-19T15:05:56;4.40;99.90
14735;DHT22;7458;49.002;8.472;2023-01-19T15:08:29;4.60;99.90
14735;DHT22;7458;49.002;8.472;2023-01-19T15:11:05;4.40;99.90
14735;DHT22;7458;49.002;8.472;2023-01-19T15:13:47;4.40;99.90
14735;DHT22;7458;49.002;8.472;2023-01-19T15:16:14;4.60;99.90
14735;DHT22;7458;49.002;8.472;2023-01-19T15:18:40;4.50;99.90
14735;DHT22;7458;49.002;8.472;2023-01-19T15:21:15;4.50;99.90
14735;DHT22;7458;49.002;8.472;2023-01-19T15:23:47;4.30;99.90
14735;DHT22;7458;49.002;8.472;2023-01-19T15:26:22;4.30;99.90
14735;DHT22;7458;49.002;8.472;2023-01-19T15:28:49;4.60;99.90
14735;DHT22;7458;49.002;8.472;2023-01-19T15:31:18;4.40;99.90
14735;DHT22;7458;49.002;8.472;2023-01-19T15:33:49;4.40;99.90
14735;DHT22;7458;49.002;8.472;2023-01-19T15:36:16;4.80;99.90
14735;DHT22;7458;49.002;8.472;2023-01-19T15:38:44;4.20;99.90
14735;DHT22;7458;49.002;8.472;2023-01-19T15:41:47;4.20;99.90
14735;DHT22;7458;49.002;8.472;2023-01-19T15:44:07;4.10;99.90
14735;DHT22;7458;49.002;8.472;2023-01-19T15:46:35;4.00;99.90
14735;DHT22;7458;49.002;8.472;2023-01-19T15:49:01;4.50;99.90
14735;DHT22;7458;49.002;8.472;2023-01-19T15:51:27;3.90;99.90
14735;DHT22;7458;49.002;8.472;2023-01-19T15:53:53;3.80;99.90
14735;DHT22;7458;49.002;8.472;2023-01-19T15:56:27;3.80;99.90
14735;DHT22;7458;49.002;8.472;2023-01-19T15:58:55;4.10;99.90
14735;DHT22;7458;49.002;8.472;2023-01-19T16:01:24;3.70;99.90
14735;DHT22;7458;49.002;8.472;2023-01-19T16:03:57;4.20;99.90
14735;DHT22;7458;49.002;8.472;2023-01-19T16:06:25;3.70;99.90
14735;DHT22;7458;49.002;8.472;2023-01-19T16:08:52;3.60;99.90
14735;DHT22;7458;49.002;8.472;2023-01-19T16:11:23;3.70;99.90
14735;DHT22;7458;49.002;8.472;2023-01-19T16:13:49;4.10;99.90
14735;DHT22;7458;49.002;8.472;2023-01-19T16:16:21;3.60;99.90
14735;DHT22;7458;49.002;8.472;2023-01-19T16:18:48;3.60;99.90
14735;DHT22;7458;49.002;8.472;2023-01-19T16:21:14;3.60;99.90
14735;DHT22;7458;49.002;8.472;2023-01-19T16:23:41;3.80;99.90
14735;DHT22;7458;49.002;8.472;2023-01-19T16:26:21;3.50;99.90
14735;DHT22;7458;49.002;8.472;2023-01-19T16:28:47;3.70;99.90
14735;DHT22;7458;49.002;8.472;2023-01-19T16:31:14;3.40;99.90
14735;DHT22;7458;49.002;8.472;2023-01-19T16:33:41;3.40;99.90
14735;DHT22;7458;49.002;8.472;2023-01-19T16:36:28;3.40;99.90
14735;DHT22;7458;49.002;8.472;2023-01-19T16:39:10;3.40;99.90
14735;DHT22;7458;49.002;8.472;2023-01-19T16:41:38;3.40;99.90
14735;DHT22;7458;49.002;8.472;2023-01-19T16:44:05;3.40;99.90
14735;DHT22;7458;49.002;8.472;2023-01-19T16:46:33;3.40;99.90
14735;DHT22;7458;49.002;8.472;2023-01-19T16:49:03;3.30;99.90
14735;DHT22;7458;49.002;8.472;2023-01-19T16:51:31;3.40;99.90
14735;DHT22;7458;49.002;8.472;2023-01-19T16:53:57;3.40;99.90
14735;DHT22;7458;49.002;8.472;2023-01-19T16:56:23;3.30;99.90
14735;DHT22;7458;49.002;8.472;2023-01-19T16:58:53;3.30;99.90
14735;DHT22;7458;49.002;8.472;2023-01-19T17:01:20;3.30;99.90
14735;DHT22;7458;49.002;8.472;2023-01-19T17:03:47;3.30;99.90
14735;DHT22;7458;49.002;8.472;2023-01-19T17:06:15;3.20;99.90
14735;DHT22;7458;49.002;8.472;2023-01-19T17:08:43;3.20;99.90
14735;DHT22;7458;49.002;8.472;2023-01-19T17:11:14;3.20;99.90
14735;DHT22;7458;49.002;8.472;2023-01-19T17:13:45;3.20;99.90
14735;DHT22;7458;49.002;8.472;2023-01-19T17:16:11;3.40;99.90
14735;DHT22;7458;49.002;8.472;2023-01-19T17:18:37;3.10;99.90
14735;DHT22;7458;49.002;8.472;2023-01-19T17:21:05;3.10;99.90
14735;DHT22;7458;49.002;8.472;2023-01-19T17:23:33;3.10;99.90
14735;DHT22;7458;49.002;8.472;2023-01-19T17:25:59;3.10;99.90
14735;DHT22;7458;49.002;8.472;2023-01-19T17:28:25;3.60;99.90
14735;DHT22;7458;49.002;8.472;2023-01-19T17:30:51;3.80;99.90
14735;DHT22;7458;49.002;8.472;2023-01-19T17:33:18;3.10;99.90
14735;DHT22;7458;49.002;8.472;2023-01-19T17:35:48;3.20;99.90
14735;DHT22;7458;49.002;8.472;2023-01-19T17:38:15;3.10;99.90
14735;DHT22;7458;49.002;8.472;2023-01-19T17:40:41;3.70;99.90
14735;DHT22;7458;49.002;8.472;2023-01-19T17:43:07;3.40;99.90
14735;DHT22;7458;49.002;8.472;2023-01-19T17:45:34;3.10;99.90
14735;DHT22;7458;49.002;8.472;2023-01-19T17:48:02;3.10;99.90
14735;DHT22;7458;49.002;8.472;2023-01-19T17:50:28;3.10;99.90
14735;DHT22;7458;49.002;8.472;2023-01-19T17:52:56;3.10;99.90
14735;DHT22;7458;49.002;8.472;2023-01-19T17:55:23;3.30;99.90